createdAt,value
2022-07-27T00:01:05.227Z,41.08
2022-07-27T00:03:32.628Z,40.38
2022-07-27T00:06:00.044Z,41.41
2022-07-27T00:08:28.284Z,41.14
2022-07-27T00:10:55.638Z,40.83
2022-07-27T00:13:23.106Z,40.53
2022-07-27T00:15:50.548Z,40.38
2022-07-27T00:18:18.080Z,39.91
2022-07-27T00:20:45.495Z,40.60
2022-07-27T00:23:12.958Z,43.43
2022-07-27T00:25:40.631Z,46.33
2022-07-27T00:28:07.959Z,49.67
2022-07-27T00:30:35.979Z,52.50
2022-07-27T00:33:05.546Z,55.66
2022-07-27T00:35:32.931Z,57.63
2022-07-27T00:38:01.683Z,58.41
2022-07-27T00:40:29.032Z,61.04
2022-07-27T00:42:56.415Z,64.60
2022-07-27T00:45:23.951Z,67.13
2022-07-27T00:47:54.876Z,67.28
2022-07-27T00:50:22.533Z,66.12
2022-07-27T00:52:50.315Z,69.15
2022-07-27T00:55:17.709Z,73.90
2022-07-27T00:57:58.162Z,78.05
2022-07-27T01:00:27.956Z,79.63
2022-07-27T01:02:57.151Z,78.20
2022-07-27T01:05:26.545Z,80.80
2022-07-27T01:08:05.251Z,81.19
2022-07-27T01:10:33.781Z,82.20
2022-07-27T01:13:01.853Z,81.60
2022-07-27T01:15:29.976Z,83.36
2022-07-27T01:17:57.610Z,82.65
2022-07-27T01:20:25.066Z,80.90
2022-07-27T01:22:52.371Z,81.61
2022-07-27T01:25:19.778Z,82.95
2022-07-27T01:27:47.194Z,82.33
2022-07-27T01:30:26.989Z,81.61
2022-07-27T01:33:06.029Z,81.06
2022-07-27T01:35:33.790Z,84.00
2022-07-27T01:38:01.361Z,85.10
2022-07-27T01:40:29.114Z,85.27
2022-07-27T01:42:56.563Z,85.49
2022-07-27T01:45:23.913Z,87.51
2022-07-27T01:47:51.284Z,87.37
2022-07-27T01:50:20.909Z,87.51
2022-07-27T01:52:48.704Z,86.71
2022-07-27T01:55:16.146Z,88.96
2022-07-27T01:57:43.594Z,88.77
2022-07-27T02:00:12.252Z,88.68
2022-07-27T02:02:42.458Z,90.21
2022-07-27T02:05:13.641Z,90.02
2022-07-27T02:07:41.916Z,88.73
2022-07-27T02:10:10.548Z,89.42
2022-07-27T02:12:38.204Z,89.38
2022-07-27T02:15:16.344Z,90.98
2022-07-27T02:17:44.743Z,89.47
2022-07-27T02:20:14.872Z,91.42
2022-07-27T02:22:42.464Z,92.09
2022-07-27T02:25:12.055Z,93.39
2022-07-27T02:27:40.681Z,93.44
2022-07-27T02:30:11.423Z,92.10
2022-07-27T02:32:40.833Z,95.03
2022-07-27T02:35:18.640Z,93.87
2022-07-27T02:37:48.909Z,92.48
2022-07-27T02:40:18.193Z,92.56
2022-07-27T02:42:47.222Z,93.83
2022-07-27T02:45:15.363Z,93.27
2022-07-27T02:47:43.859Z,92.49
2022-07-27T02:50:11.350Z,92.14
2022-07-27T02:52:38.947Z,93.65
2022-07-27T02:55:06.881Z,91.13
2022-07-27T02:57:34.426Z,92.06
2022-07-27T03:00:08.683Z,91.92
2022-07-27T03:02:36.555Z,88.59
2022-07-27T03:05:05.347Z,86.03
2022-07-27T03:07:32.792Z,86.62
2022-07-27T03:10:00.212Z,86.30
2022-07-27T03:12:27.642Z,86.82
2022-07-27T03:14:54.962Z,86.67
2022-07-27T03:17:22.283Z,89.26
2022-07-27T03:19:49.924Z,90.10
2022-07-27T03:22:17.314Z,90.29
2022-07-27T03:24:44.679Z,89.74
2022-07-27T03:27:12.054Z,87.68
2022-07-27T03:29:39.579Z,90.94
2022-07-27T03:32:07.075Z,89.88
2022-07-27T03:34:34.368Z,92.32
2022-07-27T03:37:02.212Z,92.16
2022-07-27T03:39:29.567Z,91.89
2022-07-27T03:41:57.181Z,91.25
2022-07-27T03:44:24.508Z,93.09
2022-07-27T03:46:51.861Z,94.06
2022-07-27T03:49:19.337Z,93.78
2022-07-27T03:51:46.743Z,93.79
2022-07-27T03:54:14.300Z,94.06
2022-07-27T03:56:42.020Z,93.51
2022-07-27T03:59:10.109Z,93.49
2022-07-27T04:01:37.797Z,92.80
2022-07-27T04:04:05.463Z,88.67
2022-07-27T04:06:32.885Z,89.33
2022-07-27T04:09:11.855Z,88.99
2022-07-27T04:11:43.536Z,96.17
2022-07-27T04:14:18.858Z,93.70
2022-07-27T04:16:47.022Z,94.08
2022-07-27T04:19:14.775Z,90.38
2022-07-27T04:21:42.289Z,92.11
2022-07-27T04:24:09.665Z,93.16
2022-07-27T04:26:37.232Z,92.21
2022-07-27T04:29:04.662Z,93.86
2022-07-27T04:31:31.986Z,94.49
2022-07-27T04:33:59.434Z,96.08
2022-07-27T04:36:26.884Z,96.45
2022-07-27T04:38:54.370Z,96.30
2022-07-27T04:41:21.762Z,94.44
2022-07-27T04:43:49.114Z,94.63
2022-07-27T04:46:17.020Z,94.44
2022-07-27T04:48:49.341Z,94.27
2022-07-27T04:51:18.536Z,93.18
2022-07-27T04:53:52.809Z,93.31
2022-07-27T04:56:26.559Z,95.35
2022-07-27T04:58:54.849Z,94.82
2022-07-27T05:01:27.361Z,94.92
2022-07-27T05:03:56.683Z,92.34
2022-07-27T05:06:24.050Z,92.43
2022-07-27T05:08:51.386Z,90.10
2022-07-27T05:11:18.706Z,89.35
2022-07-27T05:13:46.129Z,90.54
2022-07-27T05:16:15.073Z,91.90
2022-07-27T05:18:42.488Z,90.69
2022-07-27T05:21:09.841Z,90.44
2022-07-27T05:23:37.294Z,90.37
2022-07-27T05:26:05.055Z,88.16
2022-07-27T05:28:32.415Z,91.42
2022-07-27T05:30:59.743Z,91.37
2022-07-27T05:33:27.063Z,94.65
2022-07-27T05:35:56.614Z,96.20
2022-07-27T05:38:23.994Z,93.11
2022-07-27T05:40:53.157Z,90.52
2022-07-27T05:43:20.761Z,91.54
2022-07-27T05:45:48.227Z,90.28
2022-07-27T05:48:15.630Z,89.06
2022-07-27T05:50:45.582Z,86.73
2022-07-27T05:53:12.981Z,86.67
2022-07-27T05:55:58.023Z,87.02
2022-07-27T05:58:29.446Z,88.35
2022-07-27T06:00:57.081Z,87.95
2022-07-27T06:03:24.619Z,85.41
2022-07-27T06:05:52.276Z,81.81
2022-07-27T06:08:19.645Z,78.42
2022-07-27T06:10:47.090Z,79.22
2022-07-27T06:13:14.508Z,82.88
2022-07-27T06:15:41.863Z,85.75
2022-07-27T06:18:16.782Z,86.21
2022-07-27T06:20:45.716Z,86.54
2022-07-27T06:23:13.234Z,85.67
2022-07-27T06:25:40.579Z,84.87
2022-07-27T06:28:09.117Z,84.10
2022-07-27T06:30:36.590Z,83.71
2022-07-27T06:33:07.119Z,84.64
2022-07-27T06:35:34.915Z,86.25
2022-07-27T06:38:05.497Z,85.05
2022-07-27T06:40:32.902Z,83.14
2022-07-27T06:43:00.564Z,79.26
2022-07-27T06:45:28.151Z,79.29
2022-07-27T06:47:55.502Z,77.31
2022-07-27T06:50:23.431Z,74.66
2022-07-27T06:52:51.909Z,76.84
2022-07-27T06:55:19.255Z,74.53
2022-07-27T06:57:46.698Z,75.61
2022-07-27T07:00:15.043Z,76.40
2022-07-27T07:02:57.183Z,74.90
2022-07-27T07:05:25.463Z,76.51
2022-07-27T07:07:53.425Z,74.73
2022-07-27T07:10:23.803Z,77.32
2022-07-27T07:12:56.073Z,79.36
2022-07-27T07:15:25.418Z,79.53
2022-07-27T07:17:54.244Z,78.26
2022-07-27T07:20:22.340Z,77.44
2022-07-27T07:22:50.334Z,76.90
2022-07-27T07:25:18.003Z,76.68
2022-07-27T07:27:45.310Z,73.82
2022-07-27T07:30:13.004Z,74.11
2022-07-27T07:32:40.449Z,71.45
2022-07-27T07:35:08.493Z,73.16
2022-07-27T07:37:35.971Z,73.84
2022-07-27T07:40:32.133Z,71.42
2022-07-27T07:42:57.530Z,68.57
2022-07-27T07:45:25.056Z,69.83
2022-07-27T07:47:53.927Z,68.25
2022-07-27T07:50:22.712Z,67.71
2022-07-27T07:52:51.866Z,66.29
2022-07-27T07:55:23.728Z,66.96
2022-07-27T07:57:51.150Z,63.74
2022-07-27T08:00:20.889Z,61.66
2022-07-27T08:02:57.699Z,62.83
2022-07-27T08:05:26.234Z,60.74
2022-07-27T08:07:53.997Z,60.03
2022-07-27T08:10:22.379Z,60.59
2022-07-27T08:12:53.058Z,61.39
2022-07-27T08:15:22.074Z,60.23
2022-07-27T08:18:04.883Z,59.34
2022-07-27T08:20:33.276Z,59.05
2022-07-27T08:23:00.689Z,58.40
2022-07-27T08:25:47.406Z,57.24
2022-07-27T08:28:14.985Z,57.41
2022-07-27T08:30:42.332Z,56.53
2022-07-27T08:33:11.235Z,56.06
2022-07-27T08:35:38.609Z,54.43
2022-07-27T08:38:07.498Z,55.09
2022-07-27T08:40:40.503Z,55.41
2022-07-27T08:43:10.150Z,55.04
2022-07-27T08:45:37.760Z,52.44
2022-07-27T08:48:06.100Z,49.34
2022-07-27T08:50:35.335Z,51.00
2022-07-27T08:53:08.942Z,50.78
2022-07-27T08:55:39.741Z,50.44
2022-07-27T08:58:08.950Z,52.58
2022-07-27T09:00:39.822Z,51.39
2022-07-27T09:03:07.922Z,50.82
2022-07-27T09:05:43.411Z,49.09
2022-07-27T09:08:16.095Z,47.97
2022-07-27T09:10:43.887Z,47.40
2022-07-27T09:13:22.185Z,46.64
2022-07-27T09:18:40.449Z,47.58
2022-07-27T09:21:12.210Z,48.05
2022-07-27T09:23:45.954Z,48.24
2022-07-27T09:26:33.203Z,47.35
2022-07-27T09:29:07.245Z,46.48
2022-07-27T09:32:01.064Z,45.41
2022-07-27T09:34:33.357Z,47.14
2022-07-27T09:37:05.746Z,47.67
2022-07-27T09:39:33.549Z,45.80
2022-07-27T09:42:02.665Z,47.93
2022-07-27T09:44:42.688Z,47.57
2022-07-27T09:47:29.249Z,47.45
2022-07-27T09:50:19.954Z,48.03
2022-07-27T09:52:47.740Z,47.80
2022-07-27T09:55:20.085Z,46.40
2022-07-27T09:57:56.245Z,46.03
2022-07-27T10:00:27.452Z,45.32
2022-07-27T10:02:55.353Z,45.57
2022-07-27T10:05:23.672Z,46.67
2022-07-27T10:07:53.478Z,44.56
2022-07-27T10:10:22.305Z,44.82
2022-07-27T10:12:54.608Z,45.02
2022-07-27T10:15:24.894Z,43.92
2022-07-27T10:18:08.706Z,43.89
2022-07-27T10:20:40.137Z,43.86
2022-07-27T10:23:08.927Z,46.18
2022-07-27T10:25:38.019Z,46.65
2022-07-27T10:28:17.477Z,45.30
2022-07-27T10:30:47.257Z,42.64
2022-07-27T10:33:42.876Z,43.98
2022-07-27T10:36:37.461Z,44.37
2022-07-27T10:39:08.804Z,42.62
2022-07-27T10:41:41.515Z,41.96
2022-07-27T10:44:28.243Z,41.18
2022-07-27T10:47:04.629Z,41.76
2022-07-27T10:49:40.307Z,40.00
2022-07-27T10:52:47.749Z,40.32
2022-07-27T10:55:30.955Z,38.85
2022-07-27T10:58:14.892Z,40.16
2022-07-27T11:00:55.244Z,39.32
2022-07-27T11:03:33.326Z,39.09
2022-07-27T11:06:31.989Z,40.29
2022-07-27T11:11:49.641Z,38.87
2022-07-27T11:14:19.106Z,39.06
2022-07-27T11:16:55.271Z,37.84
2022-07-27T11:19:24.620Z,38.48
2022-07-27T11:21:53.903Z,38.03
2022-07-27T11:24:23.537Z,37.42
2022-07-27T11:26:52.617Z,37.58
2022-07-27T11:29:23.071Z,37.54
2022-07-27T11:31:57.598Z,37.34
2022-07-27T11:34:35.028Z,37.59
2022-07-27T11:37:05.793Z,36.86
2022-07-27T11:39:59.637Z,36.80
2022-07-27T11:42:23.439Z,36.95
2022-07-27T11:44:53.059Z,36.57
2022-07-27T11:47:21.781Z,36.83
2022-07-27T11:49:49.212Z,37.42
2022-07-27T11:52:18.403Z,37.18
2022-07-27T11:54:51.358Z,37.37
2022-07-27T11:57:20.496Z,35.61
2022-07-27T11:59:47.932Z,36.01
2022-07-27T12:02:19.644Z,35.64
2022-07-27T12:04:49.279Z,37.64
2022-07-27T12:07:29.977Z,36.70
2022-07-27T12:10:03.488Z,36.47
2022-07-27T12:12:32.831Z,35.24
2022-07-27T12:15:16.534Z,36.54
2022-07-27T12:17:57.245Z,37.49
2022-07-27T12:20:33.012Z,36.89
2022-07-27T12:23:08.550Z,37.99
2022-07-27T12:25:37.435Z,37.39
2022-07-27T12:28:08.823Z,36.69
2022-07-27T12:30:45.155Z,36.72
2022-07-27T12:33:39.470Z,38.31
2022-07-27T12:36:08.755Z,36.18
2022-07-27T12:38:44.347Z,35.79
2022-07-27T12:41:24.187Z,38.95
2022-07-27T12:44:18.422Z,38.10
2022-07-27T12:46:55.953Z,38.58
2022-07-27T12:49:34.309Z,39.08
2022-07-27T12:52:06.808Z,37.73
2022-07-27T12:54:34.471Z,37.41
2022-07-27T12:57:02.735Z,39.37
2022-07-27T12:59:30.175Z,37.53
2022-07-27T13:01:57.637Z,37.29
2022-07-27T13:04:26.536Z,36.44
2022-07-27T13:06:54.064Z,35.38
2022-07-27T13:09:21.480Z,34.37
2022-07-27T13:11:48.878Z,35.65
2022-07-27T13:14:16.381Z,36.00
2022-07-27T13:16:43.780Z,35.96
2022-07-27T13:19:14.178Z,36.83
2022-07-27T13:21:41.930Z,36.53
2022-07-27T13:24:10.297Z,36.47
2022-07-27T13:26:39.291Z,37.31
2022-07-27T13:29:06.853Z,37.68
2022-07-27T13:31:34.538Z,38.52
2022-07-27T13:34:01.973Z,36.13
2022-07-27T13:36:29.351Z,36.87
2022-07-27T13:38:59.667Z,35.83
2022-07-27T13:41:27.251Z,34.93
2022-07-27T13:43:54.614Z,35.41
2022-07-27T13:46:22.039Z,35.21
2022-07-27T13:48:49.555Z,36.16
2022-07-27T13:51:16.921Z,35.68
2022-07-27T13:53:46.905Z,36.59
2022-07-27T13:56:14.364Z,37.55
2022-07-27T13:58:41.783Z,36.64
2022-07-27T14:01:09.300Z,36.53
2022-07-27T14:03:37.467Z,37.02
2022-07-27T14:06:06.577Z,36.63
2022-07-27T14:08:35.913Z,37.15
2022-07-27T14:11:03.440Z,38.00
2022-07-27T14:13:32.785Z,37.18
2022-07-27T14:16:01.523Z,35.56
2022-07-27T14:18:30.781Z,35.30
2022-07-27T14:21:06.575Z,35.99
2022-07-27T14:23:35.285Z,35.91
2022-07-27T14:26:06.126Z,36.62
2022-07-27T14:28:33.882Z,37.43
2022-07-27T14:31:06.605Z,37.46
2022-07-27T14:33:36.584Z,37.66
2022-07-27T14:36:05.878Z,37.27
2022-07-27T14:38:33.347Z,38.42
2022-07-27T14:41:01.076Z,37.89
2022-07-27T14:43:30.231Z,38.10
2022-07-27T14:46:01.737Z,36.90
2022-07-27T14:48:55.562Z,37.67
2022-07-27T14:51:16.528Z,39.02
2022-07-27T14:53:43.910Z,38.39
2022-07-27T14:56:11.318Z,37.82
2022-07-27T14:58:38.642Z,38.39
2022-07-27T15:01:06.059Z,38.94
2022-07-27T15:03:33.483Z,38.25
2022-07-27T15:06:00.867Z,38.50
2022-07-27T15:08:28.226Z,38.13
2022-07-27T15:10:57.382Z,38.22
2022-07-27T15:13:24.958Z,38.70
2022-07-27T15:15:53.045Z,39.51
2022-07-27T15:18:21.040Z,39.19
2022-07-27T15:20:48.477Z,39.92
2022-07-27T15:23:16.533Z,39.84
2022-07-27T15:25:43.988Z,40.46
2022-07-27T15:28:11.977Z,39.51
2022-07-27T15:30:39.581Z,39.09
2022-07-27T15:33:07.675Z,39.72
2022-07-27T15:35:35.199Z,40.79
2022-07-27T15:38:03.190Z,39.56
2022-07-27T15:40:41.727Z,40.73
2022-07-27T15:43:15.125Z,41.42
2022-07-27T15:45:45.768Z,42.13
2022-07-27T15:48:13.733Z,41.48
2022-07-27T15:50:45.184Z,42.30
2022-07-27T15:53:14.187Z,41.55
2022-07-27T15:55:45.223Z,41.87
2022-07-27T15:58:13.970Z,42.34
2022-07-27T16:00:41.680Z,41.39
2022-07-27T16:03:10.549Z,42.09
2022-07-27T16:05:38.877Z,41.97
2022-07-27T16:08:09.600Z,41.78
2022-07-27T16:10:41.386Z,42.10
2022-07-27T16:13:09.472Z,41.71
2022-07-27T16:15:57.739Z,41.79
2022-07-27T16:18:25.588Z,41.44
2022-07-27T16:20:53.251Z,41.86
2022-07-27T16:23:22.296Z,41.57
2022-07-27T16:26:03.938Z,41.69
2022-07-27T16:28:34.017Z,41.69
2022-07-27T16:31:01.834Z,42.01
2022-07-27T16:33:30.270Z,41.49
2022-07-27T16:35:58.053Z,41.58
2022-07-27T16:38:25.686Z,41.06
2022-07-27T16:40:53.145Z,42.08
2022-07-27T16:43:20.675Z,41.88
2022-07-27T16:45:48.158Z,42.11
2022-07-27T16:48:15.641Z,41.80
2022-07-27T16:50:42.958Z,41.46
2022-07-27T16:53:10.657Z,41.54
2022-07-27T16:55:37.975Z,41.88
2022-07-27T16:58:05.364Z,42.10
2022-07-27T17:00:38.217Z,41.74
2022-07-27T17:03:06.381Z,41.91
2022-07-27T17:05:34.115Z,43.09
2022-07-27T17:08:01.426Z,43.07
2022-07-27T17:10:28.859Z,42.49
2022-07-27T17:12:57.903Z,42.01
2022-07-27T17:15:25.435Z,40.84
2022-07-27T17:17:53.037Z,40.64
2022-07-27T17:20:34.931Z,41.53
2022-07-27T17:23:05.954Z,41.24
2022-07-27T17:25:33.327Z,41.49
2022-07-27T17:28:00.713Z,41.74
2022-07-27T17:30:27.994Z,42.00
2022-07-27T17:32:55.434Z,42.63
2022-07-27T17:35:22.826Z,42.43
2022-07-27T17:38:05.531Z,42.59
2022-07-27T17:40:34.530Z,41.28
2022-07-27T17:43:02.111Z,41.19
2022-07-27T17:45:29.544Z,41.14
2022-07-27T17:47:57.151Z,41.81
2022-07-27T17:50:24.564Z,42.90
2022-07-27T17:52:56.356Z,43.68
2022-07-27T17:55:23.766Z,43.50
2022-07-27T17:57:51.356Z,43.67
2022-07-27T18:00:18.789Z,42.50
2022-07-27T18:02:46.290Z,42.77
2022-07-27T18:05:13.591Z,42.71
2022-07-27T18:07:41.415Z,42.48
2022-07-27T18:10:09.245Z,42.99
2022-07-27T18:12:36.844Z,43.59
2022-07-27T18:15:23.322Z,44.09
2022-07-27T18:17:50.860Z,43.38
2022-07-27T18:20:18.210Z,43.14
2022-07-27T18:22:45.516Z,43.42
2022-07-27T18:25:13.077Z,43.95
2022-07-27T18:27:40.909Z,44.50
2022-07-27T18:30:08.923Z,44.70
2022-07-27T18:32:37.030Z,44.71
2022-07-27T18:35:05.417Z,45.08
2022-07-27T18:37:32.810Z,45.15
2022-07-27T18:40:01.061Z,45.97
2022-07-27T18:42:28.393Z,46.33
2022-07-27T18:44:55.865Z,45.64
2022-07-27T18:47:23.191Z,45.95
2022-07-27T18:49:50.500Z,45.64
2022-07-27T18:52:18.048Z,45.96
2022-07-27T18:54:45.338Z,46.87
2022-07-27T18:57:12.756Z,47.50
2022-07-27T18:59:41.258Z,47.49
2022-07-27T19:02:08.999Z,47.46
2022-07-27T19:04:37.072Z,47.63
2022-07-27T19:07:07.204Z,48.59
2022-07-27T19:09:34.622Z,47.84
2022-07-27T19:12:06.035Z,47.86
2022-07-27T19:14:37.048Z,48.78
2022-07-27T19:17:05.476Z,48.23
2022-07-27T19:19:33.118Z,48.03
2022-07-27T19:22:00.443Z,49.63
2022-07-27T19:24:28.141Z,49.39
2022-07-27T19:26:55.521Z,49.15
2022-07-27T19:29:25.646Z,49.54
2022-07-27T19:31:53.059Z,49.83
2022-07-27T19:34:22.007Z,50.31
2022-07-27T19:36:49.383Z,50.57
2022-07-27T19:39:17.222Z,49.32
2022-07-27T19:41:44.565Z,49.02
2022-07-27T19:44:16.766Z,49.72
2022-07-27T19:46:48.931Z,50.36
2022-07-27T19:49:18.414Z,48.98
2022-07-27T19:51:46.079Z,48.89
2022-07-27T19:54:13.711Z,49.74
2022-07-27T19:56:41.083Z,51.11
2022-07-27T19:59:08.729Z,49.99
2022-07-27T20:01:36.069Z,51.93
2022-07-27T20:04:09.275Z,51.89
2022-07-27T20:06:36.620Z,49.63
2022-07-27T20:09:05.137Z,49.55
2022-07-27T20:11:35.087Z,49.50
2022-07-27T20:14:03.292Z,49.03
2022-07-27T20:16:34.025Z,49.42
2022-07-27T20:19:02.556Z,50.46
2022-07-27T20:21:31.856Z,49.46
2022-07-27T20:24:01.919Z,49.88
2022-07-27T20:26:29.549Z,49.39
2022-07-27T20:28:59.747Z,49.82
2022-07-27T20:31:29.976Z,49.68
2022-07-27T20:33:58.179Z,50.50
2022-07-27T20:36:25.547Z,49.88
2022-07-27T20:38:53.193Z,50.36
2022-07-27T20:41:20.554Z,50.38
2022-07-27T20:43:48.162Z,50.14
2022-07-27T20:46:16.100Z,49.65
2022-07-27T20:48:43.588Z,50.76
2022-07-27T20:51:11.088Z,50.70
2022-07-27T20:53:39.418Z,50.99
2022-07-27T20:56:07.431Z,50.58
2022-07-27T20:58:34.826Z,51.09
2022-07-27T21:01:02.192Z,50.28
2022-07-27T21:03:29.679Z,50.89
2022-07-27T21:05:57.159Z,50.83
2022-07-27T21:08:25.126Z,51.40
2022-07-27T21:10:56.052Z,50.91
2022-07-27T21:13:23.766Z,50.99
2022-07-27T21:15:51.150Z,52.83
2022-07-27T21:18:18.588Z,52.43
2022-07-27T21:20:46.223Z,51.37
2022-07-27T21:23:32.122Z,52.34
2022-07-27T21:26:01.945Z,52.00
2022-07-27T21:28:30.303Z,51.66
2022-07-27T21:30:57.948Z,51.92
2022-07-27T21:33:25.394Z,51.31
2022-07-27T21:35:52.852Z,51.51
2022-07-27T21:38:20.339Z,51.22
2022-07-27T21:40:47.777Z,51.37
2022-07-27T21:43:15.129Z,51.51
2022-07-27T21:45:47.811Z,51.84
2022-07-27T21:48:17.416Z,52.91
2022-07-27T21:50:44.748Z,52.20
2022-07-27T21:53:14.683Z,52.03
2022-07-27T21:55:42.125Z,51.75
2022-07-27T21:58:12.201Z,51.31
2022-07-27T22:00:39.681Z,51.06
2022-07-27T22:03:08.056Z,50.90
2022-07-27T22:05:35.435Z,51.82
2022-07-27T22:08:02.997Z,52.55
2022-07-27T22:10:31.485Z,52.82
2022-07-27T22:12:59.258Z,53.54
2022-07-27T22:15:28.102Z,55.23
2022-07-27T22:17:55.455Z,54.63
2022-07-27T22:20:22.935Z,53.60
2022-07-27T22:22:51.268Z,53.78
2022-07-27T22:25:19.670Z,53.78
2022-07-27T22:27:47.235Z,53.89
2022-07-27T22:30:15.372Z,55.14
2022-07-27T22:32:42.786Z,54.60
2022-07-27T22:35:10.486Z,55.25
2022-07-27T22:37:38.195Z,54.95
2022-07-27T22:40:06.356Z,55.30
2022-07-27T22:42:33.717Z,54.59
2022-07-27T22:45:01.114Z,55.43
2022-07-27T22:47:28.505Z,56.00
2022-07-27T22:49:55.830Z,55.97
2022-07-27T22:52:23.405Z,56.93
2022-07-27T22:54:50.961Z,56.54
2022-07-27T22:57:18.334Z,55.82
2022-07-27T22:59:45.663Z,54.96
2022-07-27T23:02:12.999Z,54.18
2022-07-27T23:04:40.376Z,54.10
2022-07-27T23:07:10.408Z,53.63
2022-07-27T23:09:37.699Z,53.24
2022-07-27T23:12:05.632Z,53.07
2022-07-27T23:14:33.765Z,52.54
2022-07-27T23:17:01.142Z,52.69
2022-07-27T23:19:28.443Z,52.23
2022-07-27T23:22:01.465Z,51.33
2022-07-27T23:24:29.885Z,50.33
2022-07-27T23:26:57.524Z,50.31
2022-07-27T23:29:25.742Z,50.33
2022-07-27T23:31:53.372Z,50.09
2022-07-27T23:34:20.748Z,50.10
2022-07-27T23:36:48.076Z,49.93
2022-07-27T23:39:15.358Z,50.29
2022-07-27T23:41:45.328Z,50.32
2022-07-27T23:44:17.142Z,49.59
2022-07-27T23:46:44.746Z,49.51
2022-07-27T23:49:12.222Z,49.83
2022-07-27T23:51:39.558Z,48.92
2022-07-27T23:54:08.172Z,49.46
2022-07-27T23:56:35.497Z,49.14
2022-07-27T23:59:03.027Z,48.35
